Airfield :
LOGIN :

Register | Disclaimer

   EN    FR    IT 

 










Legend :    VFR   Marginal VFR   IFR   Intensive IFR   Very Intensive IFR
Visi :
Ceiling :
>= 8 km
>= 3000ft
5 to 8 km
1000 to 3000 ft
1500m to 5 km
500 to 1000 ft
800 to 1500m
200 to 500 ft
< 800m
< 200 ft
Symbols :   Thunderstorms  Fog  Heavy snow  Heavy precipitations  Wind > 20 kt
SIGMETs :     Misc.  Thunderstorms  Icing  Turbulence  Mountain Waves  Volcanic Ashes






- Airport Elevation : 74 ft
- IATA code : EIN


EHEH - Eindhoven

CURRENT METAR :
  • 271755Z AUTO 28004KT 250V320 6000 BR FEW002 BKN005 OVC006 01/01 Q1001 YLO 30006KT 7000 SCT005 BKN008 BECMG SCT012 SCT018CB

EXPIRED METARs :
  • 271738Z AUTO VRB04KT 5000 -DZRA FEW002 BKN003 OVC005 01/01 Q1001 YLO 30006KT 7000 SCT005 BKN007 TEMPO 2500 SNRA SCT003 OVC004
  • 271729Z AUTO 28005KT 250V340 4500 -RASN FEW002 BKN003 OVC004 01/00 Q1001 YLO 30006KT 7000 SCT005 BKN007 TEMPO 2500 SNRA SCT003 OVC004
  • 271719Z AUTO 29005KT 230V340 5000 -SNRA SCT002 BKN003 OVC004 01/00 Q1000 AMB 30006KT 7000 SCT005 BKN007 TEMPO 2500 SNRA SCT003 OVC004
  • 271707Z AUTO 29005KT 250V350 3000 R03/3000N -SN BKN002 OVC004 01/00 Q1000 AMB 30008KT 7000 SCT005 BKN007 TEMPO 2500 SNRA SCT003 OVC004
  • 271655Z AUTO 30006KT 270V350 3100 R03/2900D -SHSN FEW002 BKN003 BKN005 01/00 Q0999 YLO 31008KT 7000 SCT005 BKN007 TEMPO 2500 SNRA SCT004 OVC006
  • 271630Z AUTO 32007KT 250V350 3700 -SNRA SCT004 BKN005 OVC006 01/01 Q0999 YLO 33008KT 7000 SCT005 BKN007 TEMPO 4500 SNRA SCT004 OVC006
  • 271625Z AUTO 32007KT 260V010 7000 -SHRA BKN004 BKN006 OVC007 02/01 Q0998 YLO 33008KT 7000 SCT005 BKN007 TEMPO 4500 SNRA SCT004 OVC006
  • 271613Z AUTO 33007KT 260V010 7000 -RA SCT004 BKN006 OVC007 02/01 Q0998 YLO 33008KT 7000 SCT005 BKN007 TEMPO 4500 SNRA SCT004 OVC006
  • 271555Z AUTO 33006KT 270V010 7000 -RA SCT005 BKN006 OVC007 02/01 Q0997 YLO 02008KT 7000 SCT005 BKN007 BECMG 32008KT 4500 SNRA SCT004 OVC006
  • 271525Z AUTO 01007KT 340V040 6000 -RA SCT005 OVC006 02/02 Q0996 YLO 02008KT 7000 SCT005 BKN007 BECMG 32008KT 4500 SNRA SCT004 OVC006

TAF TAF EHEH
Valid from the 27 at 18:00 until the 29 at 00:00 UTC


271731Z 2718/2824 30008KT 9999 SCT025
TEMPO 2718/2719 2000 RASN SCT002 BKN004
TEMPO 2719/2721 31010G20KT 4000 SHRAGS SCT012 SCT018CB
BECMG 2719/2722 28007KT
BECMG 2815/2817 18015G25KT
BECMG 2817/2819 SCT012 BKN018
TEMPO 2819/2824 4000 RADZ SCT006 BKN007



MET'MAP, your aeronautical weather chart ! - Copyright ORBIFLY December 2007 - Disclaimer

ORBIFLY MET'MAP TEAM :

Programming & Development : Alexandra Zaïnal
Concept & original design : Baudouin d'Aumeries
Assistance for programming : Marc-Olivier Méhu
Technical & hardware support : Manuel Goepfert

Contact : metmap@orbifly.com




SOURCES & CREDITS :

   NOAA